createdAt,value
2018-11-03T00:02:04.449Z,8.18
2018-11-03T00:04:32.628Z,9.00
2018-11-03T00:07:00.817Z,8.75
2018-11-03T00:09:29.413Z,7.87
2018-11-03T00:11:57.584Z,8.58
2018-11-03T00:14:25.994Z,9.23
2018-11-03T00:16:54.170Z,9.20
2018-11-03T00:19:22.347Z,9.95
2018-11-03T00:21:50.537Z,8.93
2018-11-03T00:24:18.841Z,9.05
2018-11-03T00:26:47.149Z,9.98
2018-11-03T00:29:15.338Z,9.85
2018-11-03T00:31:43.542Z,9.68
2018-11-03T00:34:11.742Z,10.05
2018-11-03T00:36:39.915Z,10.03
2018-11-03T00:39:09.774Z,10.38
2018-11-03T00:41:37.957Z,10.68
2018-11-03T00:44:06.269Z,10.10
2018-11-03T00:46:34.453Z,9.70
2018-11-03T00:49:02.689Z,9.80
2018-11-03T00:51:31.085Z,10.80
2018-11-03T00:53:59.255Z,11.60
2018-11-03T00:56:27.457Z,12.20
2018-11-03T00:58:55.968Z,10.40
2018-11-03T01:01:24.158Z,11.73
2018-11-03T01:03:52.357Z,12.18
2018-11-03T01:06:20.762Z,11.95
2018-11-03T01:08:48.966Z,12.30
2018-11-03T01:11:17.214Z,11.95
2018-11-03T01:13:45.394Z,11.80
2018-11-03T01:16:13.586Z,12.88
2018-11-03T01:18:41.906Z,12.93
2018-11-03T01:21:10.081Z,13.22
2018-11-03T01:23:38.289Z,13.53
2018-11-03T01:26:06.462Z,13.13
2018-11-03T01:28:34.845Z,15.00
2018-11-03T01:31:03.230Z,14.15
2018-11-03T01:33:31.450Z,13.50
2018-11-03T01:36:00.261Z,13.98
2018-11-03T01:38:28.676Z,15.58
2018-11-03T01:40:56.874Z,15.63
2018-11-03T01:43:25.286Z,15.68
2018-11-03T01:45:53.454Z,14.33
2018-11-03T01:48:21.669Z,14.80
2018-11-03T01:50:49.854Z,16.55
2018-11-03T01:53:18.045Z,16.00
2018-11-03T01:55:46.237Z,16.25
2018-11-03T01:58:14.423Z,15.60
2018-11-03T02:00:42.659Z,15.05
2018-11-03T02:03:10.827Z,15.13
2018-11-03T02:05:39.441Z,15.10
2018-11-03T02:08:07.610Z,15.30
2018-11-03T02:10:35.811Z,15.72
2018-11-03T02:13:03.990Z,15.93
2018-11-03T02:15:32.230Z,16.62
2018-11-03T02:18:00.497Z,16.67
2018-11-03T02:20:28.894Z,18.65
2018-11-03T02:22:57.069Z,17.17
2018-11-03T02:25:25.524Z,16.95
2018-11-03T02:27:53.701Z,18.27
2018-11-03T02:30:21.896Z,18.60
2018-11-03T02:32:50.089Z,18.10
2018-11-03T02:35:18.324Z,19.23
2018-11-03T02:37:46.514Z,18.42
2018-11-03T02:40:14.732Z,17.70
2018-11-03T02:42:43.219Z,19.32
2018-11-03T02:45:11.720Z,19.25
2018-11-03T02:47:40.463Z,20.17
2018-11-03T02:50:10.913Z,18.77
2018-11-03T02:52:39.232Z,19.77
2018-11-03T02:55:07.416Z,20.52
2018-11-03T02:57:35.849Z,20.60
2018-11-03T03:00:04.266Z,19.02
2018-11-03T03:02:32.445Z,19.70
2018-11-03T03:05:00.630Z,20.80
2018-11-03T03:07:28.835Z,19.10
2018-11-03T03:09:57.057Z,20.65
2018-11-03T03:12:25.329Z,20.85
2018-11-03T03:14:53.622Z,19.92
2018-11-03T03:17:21.802Z,20.90
2018-11-03T03:19:49.982Z,19.48
2018-11-03T03:22:18.161Z,18.75
2018-11-03T03:24:46.557Z,20.08
2018-11-03T03:27:14.741Z,20.15
2018-11-03T03:29:42.987Z,19.00
2018-11-03T03:32:11.115Z,19.17
2018-11-03T03:34:39.541Z,19.50
2018-11-03T03:37:07.719Z,21.20
2018-11-03T03:39:35.919Z,19.77
2018-11-03T03:42:04.090Z,19.32
2018-11-03T03:44:32.249Z,17.80
2018-11-03T03:47:00.437Z,20.00
2018-11-03T03:49:28.649Z,18.80
2018-11-03T03:51:56.841Z,20.00
2018-11-03T03:54:25.006Z,19.45
2018-11-03T03:56:53.221Z,17.85
2018-11-03T03:59:21.391Z,19.00
2018-11-03T04:01:49.591Z,20.05
2018-11-03T04:04:17.777Z,18.67
2018-11-03T04:06:45.962Z,19.42
2018-11-03T04:09:14.275Z,20.05
2018-11-03T04:11:42.510Z,19.52
2018-11-03T04:14:10.645Z,18.30
2018-11-03T04:16:38.820Z,18.85
2018-11-03T04:19:07.016Z,18.92
2018-11-03T04:21:35.197Z,19.07
2018-11-03T04:24:03.371Z,18.65
2018-11-03T04:26:32.019Z,20.50
2018-11-03T04:29:00.185Z,18.20
2018-11-03T04:31:28.753Z,20.92
2018-11-03T04:33:57.533Z,20.35
2018-11-03T04:36:26.035Z,18.98
2018-11-03T04:38:54.185Z,19.15
2018-11-03T04:41:22.608Z,20.10
2018-11-03T04:43:50.874Z,20.72
2018-11-03T04:46:19.297Z,17.52
2018-11-03T04:48:47.499Z,17.60
2018-11-03T04:51:15.878Z,18.30
2018-11-03T04:53:44.072Z,20.15
2018-11-03T04:56:12.479Z,19.75
2018-11-03T04:58:40.651Z,19.82
2018-11-03T05:01:08.824Z,21.27
2018-11-03T05:03:36.994Z,18.77
2018-11-03T05:06:05.222Z,18.55
2018-11-03T05:08:33.393Z,19.57
2018-11-03T05:11:01.579Z,19.30
2018-11-03T05:13:29.750Z,17.60
2018-11-03T05:15:57.939Z,18.60
2018-11-03T05:18:26.238Z,18.37
2018-11-03T05:20:54.517Z,17.87
2018-11-03T05:23:22.710Z,19.00
2018-11-03T05:25:50.890Z,19.62
2018-11-03T05:28:19.083Z,18.80
2018-11-03T05:30:47.407Z,18.75
2018-11-03T05:33:15.818Z,18.65
2018-11-03T05:35:43.999Z,18.45
2018-11-03T05:38:12.217Z,20.95
2018-11-03T05:40:40.371Z,18.35
2018-11-03T05:43:08.567Z,18.77
2018-11-03T05:45:36.745Z,19.27
2018-11-03T05:48:04.994Z,18.60
2018-11-03T05:50:33.155Z,17.77
2018-11-03T05:53:01.337Z,19.50
2018-11-03T05:55:29.526Z,19.98
2018-11-03T05:57:57.912Z,18.17
2018-11-03T06:00:27.946Z,20.20
2018-11-03T06:02:57.981Z,18.05
2018-11-03T06:05:26.146Z,19.45
2018-11-03T06:07:54.403Z,18.30
2018-11-03T06:10:22.573Z,19.57
2018-11-03T06:12:50.765Z,17.65
2018-11-03T06:15:19.106Z,17.95
2018-11-03T06:17:47.270Z,17.17
2018-11-03T06:20:15.452Z,18.73
2018-11-03T06:22:43.764Z,18.05
2018-11-03T06:25:12.023Z,18.77
2018-11-03T06:27:40.455Z,17.30
2018-11-03T06:30:10.150Z,18.37
2018-11-03T06:32:38.433Z,17.67
2018-11-03T06:35:07.013Z,19.17
2018-11-03T06:37:35.381Z,18.73
2018-11-03T06:40:03.902Z,17.92
2018-11-03T06:42:32.126Z,18.05
2018-11-03T06:45:00.496Z,17.98
2018-11-03T06:47:28.753Z,16.95
2018-11-03T06:49:56.879Z,16.90
2018-11-03T06:52:25.142Z,16.90
2018-11-03T06:54:53.236Z,16.85
2018-11-03T06:57:21.857Z,18.52
2018-11-03T06:59:50.035Z,16.30
2018-11-03T07:02:18.265Z,17.32
2018-11-03T07:04:46.434Z,16.90
2018-11-03T07:07:14.858Z,18.20
2018-11-03T07:09:43.030Z,16.42
2018-11-03T07:12:11.256Z,16.37
2018-11-03T07:14:39.693Z,17.20
2018-11-03T07:17:08.330Z,17.80
2018-11-03T07:19:36.746Z,17.20
2018-11-03T07:22:05.013Z,17.10
2018-11-03T07:24:33.523Z,16.45
2018-11-03T07:27:01.707Z,17.37
2018-11-03T07:29:29.986Z,17.40
2018-11-03T07:31:58.102Z,17.02
2018-11-03T07:34:26.310Z,17.23
2018-11-03T07:36:54.511Z,16.12
2018-11-03T07:39:22.912Z,14.25
2018-11-03T07:41:51.100Z,15.75
2018-11-03T07:44:19.277Z,16.90
2018-11-03T07:46:47.451Z,17.40
2018-11-03T07:49:17.548Z,15.95
2018-11-03T07:51:46.674Z,15.38
2018-11-03T07:54:14.875Z,16.55
2018-11-03T07:56:43.054Z,16.32
2018-11-03T07:59:11.274Z,14.03
2018-11-03T08:01:39.446Z,14.35
2018-11-03T08:04:08.281Z,15.40
2018-11-03T08:06:36.609Z,15.65
2018-11-03T08:09:07.012Z,15.45
2018-11-03T08:11:35.182Z,16.70
2018-11-03T08:14:03.467Z,14.95
2018-11-03T08:16:31.696Z,16.00
2018-11-03T08:19:00.211Z,15.30
2018-11-03T08:21:28.438Z,16.20
2018-11-03T08:23:56.706Z,16.60
2018-11-03T08:26:24.831Z,16.32
2018-11-03T08:28:53.046Z,14.25
2018-11-03T08:31:21.708Z,14.55
2018-11-03T08:33:49.881Z,14.23
2018-11-03T08:36:18.081Z,14.45
2018-11-03T08:38:46.279Z,14.87
2018-11-03T08:41:14.447Z,14.87
2018-11-03T08:43:42.753Z,14.15
2018-11-03T08:46:11.149Z,13.62
2018-11-03T08:48:39.377Z,12.80
2018-11-03T08:51:07.613Z,13.32
2018-11-03T08:53:35.825Z,14.60
2018-11-03T08:56:04.382Z,14.03
2018-11-03T08:58:32.593Z,14.07
2018-11-03T09:01:01.646Z,13.03
2018-11-03T09:03:29.869Z,14.23
2018-11-03T09:05:58.084Z,14.55
2018-11-03T09:08:26.524Z,14.10
2018-11-03T09:10:54.755Z,13.40
2018-11-03T09:13:22.941Z,14.05
2018-11-03T09:15:51.402Z,14.07
2018-11-03T09:18:19.810Z,12.85
2018-11-03T09:20:48.024Z,13.80
2018-11-03T09:23:16.263Z,13.60
2018-11-03T09:25:44.478Z,13.65
2018-11-03T09:28:12.694Z,13.30
2018-11-03T09:30:40.904Z,13.55
2018-11-03T09:33:09.589Z,13.40
2018-11-03T09:35:38.317Z,13.05
2018-11-03T09:38:09.268Z,13.95
2018-11-03T09:40:37.655Z,12.68
2018-11-03T09:43:06.948Z,13.88
2018-11-03T09:45:35.880Z,12.80
2018-11-03T09:48:04.104Z,13.45
2018-11-03T09:50:32.377Z,13.55
2018-11-03T09:53:00.530Z,13.10
2018-11-03T09:55:28.744Z,12.20
2018-11-03T09:57:57.153Z,13.65
2018-11-03T10:00:25.359Z,13.35
2018-11-03T10:02:53.547Z,12.23
2018-11-03T10:05:21.742Z,13.93
2018-11-03T10:07:50.167Z,13.32
2018-11-03T10:10:19.579Z,12.20
2018-11-03T10:12:47.773Z,12.65
2018-11-03T10:15:18.035Z,12.00
2018-11-03T10:17:50.209Z,12.50
2018-11-03T10:20:19.301Z,11.68
2018-11-03T10:22:47.722Z,12.82
2018-11-03T10:27:58.842Z,11.60
2018-11-03T10:30:27.471Z,11.85
2018-11-03T10:32:56.155Z,12.68
2018-11-03T10:35:33.715Z,14.87
2018-11-03T10:38:09.864Z,13.25
2018-11-03T10:40:47.127Z,12.90
2018-11-03T10:43:15.544Z,12.98
2018-11-03T10:45:43.862Z,13.45
2018-11-03T10:48:12.321Z,13.55
2018-11-03T10:50:41.051Z,12.03
2018-11-03T10:53:09.248Z,12.98
2018-11-03T10:55:37.489Z,13.20
2018-11-03T10:58:05.921Z,13.25
2018-11-03T11:00:39.505Z,13.40
2018-11-03T11:03:13.194Z,12.88
2018-11-03T11:05:46.821Z,12.60
2018-11-03T11:08:20.241Z,13.62
2018-11-03T11:10:54.256Z,13.00
2018-11-03T11:13:24.419Z,12.55
2018-11-03T11:15:54.195Z,13.15
2018-11-03T11:18:22.656Z,12.67
2018-11-03T11:20:51.095Z,13.50
2018-11-03T11:23:19.385Z,12.13
2018-11-03T11:25:47.602Z,14.40
2018-11-03T11:28:15.807Z,14.25
2018-11-03T11:30:45.033Z,13.10
2018-11-03T11:33:14.858Z,14.10
2018-11-03T11:35:43.162Z,13.13
2018-11-03T11:38:12.034Z,14.28
2018-11-03T11:40:40.501Z,12.82
2018-11-03T11:43:09.725Z,13.53
2018-11-03T11:45:38.593Z,12.93
2018-11-03T11:48:06.901Z,12.75
2018-11-03T11:50:35.191Z,13.50
2018-11-03T11:53:03.474Z,15.00
2018-11-03T11:55:31.718Z,13.48
2018-11-03T11:58:00.031Z,14.07
2018-11-03T12:00:28.436Z,13.58
2018-11-03T12:02:56.927Z,13.60
2018-11-03T12:05:25.415Z,14.28
2018-11-03T12:07:53.990Z,15.93
2018-11-03T12:10:23.408Z,12.93
2018-11-03T12:12:52.845Z,14.57
2018-11-03T12:15:22.831Z,13.35
2018-11-03T12:17:51.741Z,14.25
2018-11-03T12:20:20.611Z,13.38
2018-11-03T12:22:49.482Z,15.98
2018-11-03T12:25:18.084Z,13.43
2018-11-03T12:27:46.742Z,13.90
2018-11-03T12:30:15.890Z,13.07
2018-11-03T12:32:44.649Z,13.67
2018-11-03T12:35:13.555Z,13.95
2018-11-03T12:37:42.195Z,14.80
2018-11-03T12:40:13.872Z,13.25
2018-11-03T12:42:42.648Z,13.50
2018-11-03T12:45:11.954Z,13.62
2018-11-03T12:47:41.205Z,14.93
2018-11-03T12:50:12.279Z,13.30
2018-11-03T12:52:41.040Z,12.97
2018-11-03T12:55:10.115Z,13.70
2018-11-03T12:57:39.332Z,14.00
2018-11-03T13:00:10.579Z,15.40
2018-11-03T13:02:40.535Z,14.50
2018-11-03T13:05:09.524Z,13.77
2018-11-03T13:07:39.053Z,16.07
2018-11-03T13:10:08.807Z,13.32
2018-11-03T13:12:38.157Z,13.57
2018-11-03T13:15:08.014Z,13.77
2018-11-03T13:17:36.792Z,13.73
2018-11-03T13:20:06.967Z,14.15
2018-11-03T13:22:36.848Z,13.13
2018-11-03T13:25:05.760Z,13.20
2018-11-03T13:27:34.383Z,12.23
2018-11-03T13:30:03.429Z,12.83
2018-11-03T13:32:33.070Z,12.93
2018-11-03T13:35:01.663Z,13.70
2018-11-03T13:37:30.101Z,15.00
2018-11-03T13:39:58.727Z,14.23
2018-11-03T13:42:27.312Z,13.47
2018-11-03T13:44:55.829Z,14.65
2018-11-03T13:47:24.437Z,13.22
2018-11-03T13:49:53.037Z,13.48
2018-11-03T13:52:21.630Z,14.10
2018-11-03T13:54:50.530Z,14.23
2018-11-03T13:57:19.116Z,13.30
2018-11-03T13:59:47.813Z,12.35
2018-11-03T14:02:16.817Z,13.55
2018-11-03T14:04:47.089Z,13.85
2018-11-03T14:07:15.687Z,12.82
2018-11-03T14:09:43.946Z,13.38
2018-11-03T14:12:12.215Z,14.03
2018-11-03T14:14:40.441Z,13.53
2018-11-03T14:17:09.292Z,13.43
2018-11-03T14:19:37.492Z,12.35
2018-11-03T14:22:06.122Z,12.65
2018-11-03T14:24:34.404Z,13.95
2018-11-03T14:27:02.624Z,11.40
2018-11-03T14:29:30.851Z,13.10
2018-11-03T14:31:59.721Z,12.55
2018-11-03T14:34:27.926Z,11.43
2018-11-03T14:36:57.009Z,12.58
2018-11-03T14:39:25.194Z,11.68
2018-11-03T14:41:53.423Z,12.90
2018-11-03T14:44:21.690Z,14.15
2018-11-03T14:46:49.919Z,12.10
2018-11-03T14:49:18.125Z,12.30
2018-11-03T14:51:46.578Z,13.55
2018-11-03T14:54:14.832Z,12.20
2018-11-03T14:56:43.081Z,13.00
2018-11-03T14:59:11.579Z,13.25
2018-11-03T15:01:39.763Z,11.97
2018-11-03T15:04:08.280Z,12.13
2018-11-03T15:06:36.883Z,11.88
2018-11-03T15:09:07.298Z,12.10
2018-11-03T15:11:37.623Z,12.93
2018-11-03T15:14:06.952Z,12.20
2018-11-03T15:16:35.162Z,13.05
2018-11-03T15:19:03.363Z,13.70
2018-11-03T15:21:31.566Z,11.05
2018-11-03T15:24:00.252Z,12.13
2018-11-03T15:26:28.459Z,13.10
2018-11-03T15:28:56.915Z,12.05
2018-11-03T15:31:25.314Z,12.37
2018-11-03T15:33:54.274Z,12.80
2018-11-03T15:36:22.506Z,12.37
2018-11-03T15:38:50.702Z,13.20
2018-11-03T15:41:18.944Z,12.05
2018-11-03T15:43:47.119Z,14.23
2018-11-03T15:46:15.318Z,15.70
2018-11-03T15:48:43.817Z,13.60
2018-11-03T15:51:12.270Z,12.82
2018-11-03T15:53:40.467Z,13.98
2018-11-03T15:56:08.994Z,12.33
2018-11-03T15:58:37.197Z,11.50
2018-11-03T16:01:05.458Z,13.18
2018-11-03T16:03:33.888Z,12.45
2018-11-03T16:06:02.062Z,11.97
2018-11-03T16:08:30.283Z,12.80
2018-11-03T16:10:58.474Z,13.35
2018-11-03T16:13:26.754Z,12.25
2018-11-03T16:15:56.092Z,13.30
2018-11-03T16:18:26.485Z,13.08
2018-11-03T16:20:54.706Z,13.83
2018-11-03T16:23:24.034Z,12.30
2018-11-03T16:25:52.753Z,14.63
2018-11-03T16:28:23.411Z,13.93
2018-11-03T16:30:55.782Z,14.03
2018-11-03T16:33:27.061Z,13.40
2018-11-03T16:36:01.131Z,14.63
2018-11-03T16:38:34.715Z,14.13
2018-11-03T16:41:04.873Z,13.35
2018-11-03T16:43:38.290Z,13.93
2018-11-03T16:46:06.511Z,15.38
2018-11-03T16:48:40.964Z,16.70
2018-11-03T16:51:13.136Z,14.33
2018-11-03T16:53:41.370Z,15.50
2018-11-03T16:56:10.410Z,14.65
2018-11-03T16:58:38.700Z,14.75
2018-11-03T17:01:06.934Z,15.65
2018-11-03T17:03:35.114Z,13.85
2018-11-03T17:06:05.155Z,15.13
2018-11-03T17:08:33.368Z,14.35
2018-11-03T17:11:04.387Z,15.28
2018-11-03T17:13:32.570Z,14.35
2018-11-03T17:16:02.062Z,15.90
2018-11-03T17:18:30.582Z,15.13
2018-11-03T17:21:01.611Z,15.85
2018-11-03T17:23:30.178Z,15.70
2018-11-03T17:26:01.987Z,16.32
2018-11-03T17:28:35.132Z,13.95
2018-11-03T17:31:06.510Z,15.05
2018-11-03T17:33:40.356Z,15.43
2018-11-03T17:36:15.396Z,14.70
2018-11-03T17:38:43.593Z,14.63
2018-11-03T17:41:11.803Z,14.93
2018-11-03T17:43:40.816Z,15.65
2018-11-03T17:46:09.438Z,15.10
2018-11-03T17:48:37.635Z,16.23
2018-11-03T17:51:05.850Z,14.40
2018-11-03T17:53:34.098Z,16.67
2018-11-03T17:56:02.319Z,15.70
2018-11-03T17:58:38.659Z,16.30
2018-11-03T18:01:06.961Z,15.08
2018-11-03T18:03:35.090Z,15.55
2018-11-03T18:06:03.417Z,15.40
2018-11-03T18:08:32.124Z,16.40
2018-11-03T18:11:00.384Z,16.17
2018-11-03T18:13:28.613Z,15.78
2018-11-03T18:15:56.812Z,17.87
2018-11-03T18:18:25.027Z,14.65
2018-11-03T18:20:53.500Z,14.63
2018-11-03T18:23:21.753Z,15.43
2018-11-03T18:25:49.966Z,14.93
2018-11-03T18:28:19.831Z,14.45
2018-11-03T18:30:48.066Z,14.78
2018-11-03T18:33:16.400Z,15.30
2018-11-03T18:35:44.645Z,15.30
2018-11-03T18:38:12.838Z,17.00
2018-11-03T18:40:41.106Z,15.60
2018-11-03T18:43:09.289Z,16.73
2018-11-03T18:45:37.506Z,15.32
2018-11-03T18:48:05.877Z,16.60
2018-11-03T18:50:34.141Z,16.07
2018-11-03T18:53:02.698Z,15.68
2018-11-03T18:55:30.916Z,16.57
2018-11-03T18:57:59.126Z,16.75
2018-11-03T19:00:27.315Z,16.45
2018-11-03T19:02:55.724Z,15.60
2018-11-03T19:05:23.942Z,16.97
2018-11-03T19:07:52.147Z,15.83
2018-11-03T19:10:20.823Z,15.50
2018-11-03T19:12:49.141Z,16.20
2018-11-03T19:15:17.318Z,15.55
2018-11-03T19:17:45.587Z,14.35
2018-11-03T19:20:14.956Z,14.95
2018-11-03T19:22:43.338Z,14.33
2018-11-03T19:25:12.825Z,16.17
2018-11-03T19:27:41.531Z,14.33
2018-11-03T19:30:11.196Z,14.78
2018-11-03T19:32:40.338Z,15.23
2018-11-03T19:35:08.810Z,13.90
2018-11-03T19:37:37.089Z,13.95
2018-11-03T19:40:10.935Z,15.48
2018-11-03T19:42:39.785Z,15.58
2018-11-03T19:45:08.122Z,15.70
2018-11-03T19:47:42.257Z,15.35
2018-11-03T19:50:10.849Z,15.48
2018-11-03T19:52:40.122Z,16.65
2018-11-03T19:55:08.318Z,16.60
2018-11-03T19:57:39.749Z,16.27
2018-11-03T20:00:15.846Z,15.40
2018-11-03T20:02:47.845Z,15.50
2018-11-03T20:05:16.917Z,18.77
2018-11-03T20:07:46.438Z,17.93
2018-11-03T20:10:14.768Z,17.65
2018-11-03T20:12:42.924Z,17.20
2018-11-03T20:15:12.171Z,16.87
2018-11-03T20:17:42.746Z,16.67
2018-11-03T20:20:14.659Z,17.67
2018-11-03T20:22:45.892Z,17.30
2018-11-03T20:25:16.398Z,16.65
2018-11-03T20:27:47.659Z,15.43
2018-11-03T20:30:22.302Z,17.02
2018-11-03T20:32:50.525Z,17.73
2018-11-03T20:35:24.227Z,16.82
2018-11-03T20:37:52.478Z,18.45
2018-11-03T20:40:20.786Z,16.42
2018-11-03T20:42:52.884Z,16.10
2018-11-03T20:45:26.334Z,16.37
2018-11-03T20:47:54.546Z,16.23
2018-11-03T20:50:26.176Z,15.63
2018-11-03T20:52:54.482Z,17.05
2018-11-03T20:55:22.712Z,17.00
2018-11-03T20:57:54.205Z,15.33
2018-11-03T21:00:24.679Z,16.40
2018-11-03T21:02:54.071Z,17.90
2018-11-03T21:08:39.474Z,18.60
2018-11-03T21:11:07.676Z,17.75
2018-11-03T21:13:47.718Z,17.98
2018-11-03T21:16:16.316Z,17.10
2018-11-03T21:18:44.625Z,18.62
2018-11-03T21:21:12.923Z,17.87
2018-11-03T21:23:41.192Z,18.73
2018-11-03T21:26:09.614Z,18.75
2018-11-03T21:28:38.085Z,16.50
2018-11-03T21:31:06.545Z,16.90
2018-11-03T21:33:34.903Z,16.93
2018-11-03T21:36:03.241Z,19.23
2018-11-03T21:38:31.799Z,17.85
2018-11-03T21:41:00.098Z,16.33
2018-11-03T21:43:28.553Z,17.53
2018-11-03T21:45:56.862Z,18.17
2018-11-03T21:48:25.487Z,19.57
2018-11-03T21:50:53.716Z,20.25
2018-11-03T21:53:21.958Z,19.52
2018-11-03T21:55:50.460Z,20.33
2018-11-03T21:58:18.676Z,19.77
2018-11-03T22:00:47.014Z,20.57
2018-11-03T22:03:15.290Z,20.80
2018-11-03T22:05:43.552Z,21.85
2018-11-03T22:08:11.858Z,23.38
2018-11-03T22:10:40.324Z,21.02
2018-11-03T22:13:08.659Z,19.25
2018-11-03T22:15:36.986Z,19.98
2018-11-03T22:18:05.445Z,20.12
2018-11-03T22:20:33.953Z,20.12
2018-11-03T22:23:02.700Z,21.45
2018-11-03T22:25:30.918Z,24.50
2018-11-03T22:27:59.356Z,21.90
2018-11-03T22:30:27.618Z,20.27
2018-11-03T22:32:55.951Z,18.10
2018-11-03T22:35:24.178Z,19.55
2018-11-03T22:37:52.407Z,19.40
2018-11-03T22:40:20.891Z,17.80
2018-11-03T22:42:49.143Z,18.17
2018-11-03T22:45:17.392Z,17.98
2018-11-03T22:47:46.138Z,19.12
2018-11-03T22:50:14.617Z,18.27
2018-11-03T22:52:43.014Z,18.50
2018-11-03T22:55:11.219Z,18.67
2018-11-03T22:57:39.740Z,20.72
2018-11-03T23:00:10.697Z,20.05
2018-11-03T23:02:39.270Z,19.73
2018-11-03T23:05:08.382Z,17.90
2018-11-03T23:07:36.639Z,17.43
2018-11-03T23:10:04.964Z,20.62
2018-11-03T23:12:33.330Z,19.48
2018-11-03T23:15:01.767Z,19.05
2018-11-03T23:17:30.072Z,19.50
2018-11-03T23:19:58.383Z,17.57
2018-11-03T23:22:26.729Z,19.32
2018-11-03T23:24:55.060Z,20.27
2018-11-03T23:27:23.315Z,18.92
2018-11-03T23:29:52.119Z,21.10
2018-11-03T23:32:20.281Z,19.53
2018-11-03T23:34:48.722Z,19.47
2018-11-03T23:37:16.963Z,19.85
2018-11-03T23:39:45.216Z,19.07
2018-11-03T23:42:13.418Z,18.87
2018-11-03T23:44:42.473Z,19.20
2018-11-03T23:47:10.682Z,19.90
2018-11-03T23:49:38.888Z,20.40
2018-11-03T23:52:07.107Z,21.00
2018-11-03T23:54:35.343Z,20.72
2018-11-03T23:57:03.771Z,20.77
2018-11-03T23:59:32.146Z,19.43
